sensor_id;sensor_type;location;lat;lon;timestamp;temperature;humidity
66576;SHT31;53428;47.686;16.584;2023-03-21T00:01:21;10.25;74.50
66576;SHT31;53428;47.686;16.584;2023-03-21T00:06:21;10.13;74.95
66576;SHT31;53428;47.686;16.584;2023-03-21T00:11:20;10.02;75.31
66576;SHT31;53428;47.686;16.584;2023-03-21T00:16:20;9.85;75.71
66576;SHT31;53428;47.686;16.584;2023-03-21T00:21:21;9.96;75.58
66576;SHT31;53428;47.686;16.584;2023-03-21T00:26:26;9.96;75.71
66576;SHT31;53428;47.686;16.584;2023-03-21T00:31:25;10.09;75.29
66576;SHT31;53428;47.686;16.584;2023-03-21T00:36:25;10.04;75.48
66576;SHT31;53428;47.686;16.584;2023-03-21T00:41:24;10.13;75.28
66576;SHT31;53428;47.686;16.584;2023-03-21T00:46:24;10.14;75.17
66576;SHT31;53428;47.686;16.584;2023-03-21T00:51:23;10.16;74.92
66576;SHT31;53428;47.686;16.584;2023-03-21T00:56:25;10.14;75.07
66576;SHT31;53428;47.686;16.584;2023-03-21T01:01:24;10.21;74.88
66576;SHT31;53428;47.686;16.584;2023-03-21T01:06:31;10.09;75.11
66576;SHT31;53428;47.686;16.584;2023-03-21T01:11:30;9.93;75.59
66576;SHT31;53428;47.686;16.584;2023-03-21T01:16:30;9.99;75.20
66576;SHT31;53428;47.686;16.584;2023-03-21T01:21:30;9.82;75.90
66576;SHT31;53428;47.686;16.584;2023-03-21T01:26:29;9.58;76.30
66576;SHT31;53428;47.686;16.584;2023-03-21T01:31:29;9.52;76.43
66576;SHT31;53428;47.686;16.584;2023-03-21T01:36:28;9.49;76.27
66576;SHT31;53428;47.686;16.584;2023-03-21T01:41:36;9.47;76.10
66576;SHT31;53428;47.686;16.584;2023-03-21T01:46:37;9.37;76.32
66576;SHT31;53428;47.686;16.584;2023-03-21T01:51:41;9.45;75.97
66576;SHT31;53428;47.686;16.584;2023-03-21T01:56:42;9.51;75.73
66576;SHT31;53428;47.686;16.584;2023-03-21T02:01:44;9.54;75.48
66576;SHT31;53428;47.686;16.584;2023-03-21T02:06:58;9.32;76.13
66576;SHT31;53428;47.686;16.584;2023-03-21T02:11:59;9.10;77.04
66576;SHT31;53428;47.686;16.584;2023-03-21T02:17:18;8.91;77.50
66576;SHT31;53428;47.686;16.584;2023-03-21T02:27:24;8.75;78.21
66576;SHT31;53428;47.686;16.584;2023-03-21T02:32:29;8.87;77.79
66576;SHT31;53428;47.686;16.584;2023-03-21T02:37:50;9.04;77.20
66576;SHT31;53428;47.686;16.584;2023-03-21T02:43:06;8.79;77.99
66576;SHT31;53428;47.686;16.584;2023-03-21T02:48:11;8.63;78.80
66576;SHT31;53428;47.686;16.584;2023-03-21T02:53:15;8.75;78.35
66576;SHT31;53428;47.686;16.584;2023-03-21T02:58:19;8.96;77.79
66576;SHT31;53428;47.686;16.584;2023-03-21T03:03:20;9.11;77.38
66576;SHT31;53428;47.686;16.584;2023-03-21T03:08:47;8.90;78.06
66576;SHT31;53428;47.686;16.584;2023-03-21T03:14:13;8.81;78.58
66576;SHT31;53428;47.686;16.584;2023-03-21T03:19:27;8.70;78.84
66576;SHT31;53428;47.686;16.584;2023-03-21T03:24:37;8.73;78.82
66576;SHT31;53428;47.686;16.584;2023-03-21T03:29:39;8.84;78.50
66576;SHT31;53428;47.686;16.584;2023-03-21T03:34:43;8.44;79.55
66576;SHT31;53428;47.686;16.584;2023-03-21T03:45:09;8.10;80.67
66576;SHT31;53428;47.686;16.584;2023-03-21T03:50:21;7.95;81.36
66576;SHT31;53428;47.686;16.584;2023-03-21T03:55:25;7.72;81.73
66576;SHT31;53428;47.686;16.584;2023-03-21T04:00:26;7.59;82.55
66576;SHT31;53428;47.686;16.584;2023-03-21T04:05:26;7.51;82.69
66576;SHT31;53428;47.686;16.584;2023-03-21T04:10:25;7.41;83.33
66576;SHT31;53428;47.686;16.584;2023-03-21T04:15:24;7.25;83.36
66576;SHT31;53428;47.686;16.584;2023-03-21T04:20:24;7.12;83.66
66576;SHT31;53428;47.686;16.584;2023-03-21T04:25:23;6.98;84.04
66576;SHT31;53428;47.686;16.584;2023-03-21T04:30:22;7.12;83.71
66576;SHT31;53428;47.686;16.584;2023-03-21T04:35:23;7.21;83.25
66576;SHT31;53428;47.686;16.584;2023-03-21T04:40:22;7.38;82.26
66576;SHT31;53428;47.686;16.584;2023-03-21T04:45:23;7.29;82.72
66576;SHT31;53428;47.686;16.584;2023-03-21T04:50:23;6.97;83.54
66576;SHT31;53428;47.686;16.584;2023-03-21T04:55:22;7.00;83.83
66576;SHT31;53428;47.686;16.584;2023-03-21T05:00:24;7.14;83.77
66576;SHT31;53428;47.686;16.584;2023-03-21T05:05:24;7.45;82.74
66576;SHT31;53428;47.686;16.584;2023-03-21T05:10:23;7.55;82.70
66576;SHT31;53428;47.686;16.584;2023-03-21T05:15:22;7.73;82.20
66576;SHT31;53428;47.686;16.584;2023-03-21T05:20:22;7.77;82.19
66576;SHT31;53428;47.686;16.584;2023-03-21T05:25:21;8.00;81.70
66576;SHT31;53428;47.686;16.584;2023-03-21T05:30:33;8.21;81.01
66576;SHT31;53428;47.686;16.584;2023-03-21T05:35:32;8.39;80.67
66576;SHT31;53428;47.686;16.584;2023-03-21T05:40:31;8.48;80.57
66576;SHT31;53428;47.686;16.584;2023-03-21T05:45:31;8.62;80.12
66576;SHT31;53428;47.686;16.584;2023-03-21T05:50:30;8.84;79.58
66576;SHT31;53428;47.686;16.584;2023-03-21T05:55:29;8.83;79.69
66576;SHT31;53428;47.686;16.584;2023-03-21T06:00:29;9.01;79.64
66576;SHT31;53428;47.686;16.584;2023-03-21T06:05:28;9.27;79.28
66576;SHT31;53428;47.686;16.584;2023-03-21T06:10:27;9.65;78.51
66576;SHT31;53428;47.686;16.584;2023-03-21T06:15:27;9.87;78.01
66576;SHT31;53428;47.686;16.584;2023-03-21T06:20:26;10.12;77.59
66576;SHT31;53428;47.686;16.584;2023-03-21T06:25:26;10.31;77.05
66576;SHT31;53428;47.686;16.584;2023-03-21T06:30:25;10.48;76.83
66576;SHT31;53428;47.686;16.584;2023-03-21T06:35:25;10.65;76.60
66576;SHT31;53428;47.686;16.584;2023-03-21T06:40:24;10.85;75.93
66576;SHT31;53428;47.686;16.584;2023-03-21T06:45:24;11.12;75.86
66576;SHT31;53428;47.686;16.584;2023-03-21T06:50:23;11.67;74.56
66576;SHT31;53428;47.686;16.584;2023-03-21T06:55:23;11.84;73.55
66576;SHT31;53428;47.686;16.584;2023-03-21T07:00:25;12.02;73.02
66576;SHT31;53428;47.686;16.584;2023-03-21T07:05:24;12.25;71.82
66576;SHT31;53428;47.686;16.584;2023-03-21T07:10:23;12.43;70.59
66576;SHT31;53428;47.686;16.584;2023-03-21T07:15:23;12.56;70.65
66576;SHT31;53428;47.686;16.584;2023-03-21T07:20:22;12.87;70.34
66576;SHT31;53428;47.686;16.584;2023-03-21T07:25:21;12.97;68.31
66576;SHT31;53428;47.686;16.584;2023-03-21T07:30:21;13.01;67.37
66576;SHT31;53428;47.686;16.584;2023-03-21T07:35:20;13.08;67.75
66576;SHT31;53428;47.686;16.584;2023-03-21T07:40:19;13.10;67.55
66576;SHT31;53428;47.686;16.584;2023-03-21T07:45:19;13.26;66.99
66576;SHT31;53428;47.686;16.584;2023-03-21T07:50:19;13.32;66.26
66576;SHT31;53428;47.686;16.584;2023-03-21T07:55:19;13.40;65.10
66576;SHT31;53428;47.686;16.584;2023-03-21T08:00:20;13.50;65.21
66576;SHT31;53428;47.686;16.584;2023-03-21T08:05:26;13.66;65.31
66576;SHT31;53428;47.686;16.584;2023-03-21T08:10:27;13.52;64.56
66576;SHT31;53428;47.686;16.584;2023-03-21T08:15:26;13.71;64.24
66576;SHT31;53428;47.686;16.584;2023-03-21T08:20:26;13.97;64.03
66576;SHT31;53428;47.686;16.584;2023-03-21T08:25:25;14.11;62.87
66576;SHT31;53428;47.686;16.584;2023-03-21T08:30:26;14.00;63.27
66576;SHT31;53428;47.686;16.584;2023-03-21T08:35:27;14.21;63.24
66576;SHT31;53428;47.686;16.584;2023-03-21T08:40:27;14.34;63.42
66576;SHT31;53428;47.686;16.584;2023-03-21T08:45:26;14.65;62.78
66576;SHT31;53428;47.686;16.584;2023-03-21T08:50:26;14.77;61.65
66576;SHT31;53428;47.686;16.584;2023-03-21T08:55:27;14.93;61.34
66576;SHT31;53428;47.686;16.584;2023-03-21T09:00:27;15.28;59.82
66576;SHT31;53428;47.686;16.584;2023-03-21T09:05:26;15.45;59.27
66576;SHT31;53428;47.686;16.584;2023-03-21T09:10:26;15.89;58.77
66576;SHT31;53428;47.686;16.584;2023-03-21T09:15:26;15.81;58.41
66576;SHT31;53428;47.686;16.584;2023-03-21T09:20:26;15.58;57.90
66576;SHT31;53428;47.686;16.584;2023-03-21T09:25:30;16.09;55.55
66576;SHT31;53428;47.686;16.584;2023-03-21T09:30:32;16.10;56.84
66576;SHT31;53428;47.686;16.584;2023-03-21T09:35:31;15.83;57.58
66576;SHT31;53428;47.686;16.584;2023-03-21T09:51:05;16.18;54.64
66576;SHT31;53428;47.686;16.584;2023-03-21T09:56:09;15.45;57.89
66576;SHT31;53428;47.686;16.584;2023-03-21T10:01:25;16.03;56.95
66576;SHT31;53428;47.686;16.584;2023-03-21T10:06:31;15.51;56.66
66576;SHT31;53428;47.686;16.584;2023-03-21T10:11:47;15.58;55.85
66576;SHT31;53428;47.686;16.584;2023-03-21T10:16:51;15.75;55.92
66576;SHT31;53428;47.686;16.584;2023-03-21T10:21:51;15.52;57.44
66576;SHT31;53428;47.686;16.584;2023-03-21T10:26:51;15.73;57.39
66576;SHT31;53428;47.686;16.584;2023-03-21T10:31:53;16.44;55.19
66576;SHT31;53428;47.686;16.584;2023-03-21T10:36:53;16.03;56.14
66576;SHT31;53428;47.686;16.584;2023-03-21T10:41:53;16.38;54.34
66576;SHT31;53428;47.686;16.584;2023-03-21T10:46:57;16.51;54.97
66576;SHT31;53428;47.686;16.584;2023-03-21T10:52:00;16.09;56.11
66576;SHT31;53428;47.686;16.584;2023-03-21T10:57:07;16.55;55.04
66576;SHT31;53428;47.686;16.584;2023-03-21T11:02:16;16.63;54.97
66576;SHT31;53428;47.686;16.584;2023-03-21T11:07:17;16.33;54.99
66576;SHT31;53428;47.686;16.584;2023-03-21T11:12:35;15.88;55.57
66576;SHT31;53428;47.686;16.584;2023-03-21T11:17:35;16.75;54.07
66576;SHT31;53428;47.686;16.584;2023-03-21T11:22:40;16.64;53.79
66576;SHT31;53428;47.686;16.584;2023-03-21T11:27:52;16.47;54.04
66576;SHT31;53428;47.686;16.584;2023-03-21T11:32:57;16.10;54.44
66576;SHT31;53428;47.686;16.584;2023-03-21T11:37:57;16.65;53.32
66576;SHT31;53428;47.686;16.584;2023-03-21T11:48:16;17.01;52.16
66576;SHT31;53428;47.686;16.584;2023-03-21T11:53:43;17.03;52.34
66576;SHT31;53428;47.686;16.584;2023-03-21T12:24:56;19.74;45.67
66576;SHT31;53428;47.686;16.584;2023-03-21T12:30:03;20.73;44.05
66576;SHT31;53428;47.686;16.584;2023-03-21T12:35:27;21.95;41.18
66576;SHT31;53428;47.686;16.584;2023-03-21T12:45:41;21.47;42.19
66576;SHT31;53428;47.686;16.584;2023-03-21T12:50:44;23.41;39.98
66576;SHT31;53428;47.686;16.584;2023-03-21T12:55:44;25.23;36.77
66576;SHT31;53428;47.686;16.584;2023-03-21T13:00:47;22.96;39.43
66576;SHT31;53428;47.686;16.584;2023-03-21T13:05:52;23.63;39.10
66576;SHT31;53428;47.686;16.584;2023-03-21T13:10:54;21.71;41.65
66576;SHT31;53428;47.686;16.584;2023-03-21T13:16:23;20.01;44.98
66576;SHT31;53428;47.686;16.584;2023-03-21T13:26:39;18.46;47.23
66576;SHT31;53428;47.686;16.584;2023-03-21T13:31:43;18.47;47.22
66576;SHT31;53428;47.686;16.584;2023-03-21T13:36:44;18.12;48.31
66576;SHT31;53428;47.686;16.584;2023-03-21T13:41:45;17.70;49.03
66576;SHT31;53428;47.686;16.584;2023-03-21T13:46:58;17.32;50.68
66576;SHT31;53428;47.686;16.584;2023-03-21T13:52:25;17.18;50.89
66576;SHT31;53428;47.686;16.584;2023-03-21T14:02:31;17.18;51.23
66576;SHT31;53428;47.686;16.584;2023-03-21T14:07:36;17.01;51.86
66576;SHT31;53428;47.686;16.584;2023-03-21T14:12:40;17.32;51.04
66576;SHT31;53428;47.686;16.584;2023-03-21T14:17:49;17.02;51.42
66576;SHT31;53428;47.686;16.584;2023-03-21T14:22:49;17.03;51.67
66576;SHT31;53428;47.686;16.584;2023-03-21T14:27:55;17.20;51.51
66576;SHT31;53428;47.686;16.584;2023-03-21T14:32:58;17.05;51.81
66576;SHT31;53428;47.686;16.584;2023-03-21T14:38:02;17.12;52.29
66576;SHT31;53428;47.686;16.584;2023-03-21T14:43:04;16.92;52.63
66576;SHT31;53428;47.686;16.584;2023-03-21T14:48:05;16.71;53.46
66576;SHT31;53428;47.686;16.584;2023-03-21T14:53:06;16.91;52.98
66576;SHT31;53428;47.686;16.584;2023-03-21T14:58:12;17.05;52.56
66576;SHT31;53428;47.686;16.584;2023-03-21T15:03:11;17.02;52.76
66576;SHT31;53428;47.686;16.584;2023-03-21T15:08:13;16.92;52.81
66576;SHT31;53428;47.686;16.584;2023-03-21T15:13:18;16.43;53.77
66576;SHT31;53428;47.686;16.584;2023-03-21T15:18:24;16.37;54.10
66576;SHT31;53428;47.686;16.584;2023-03-21T15:23:30;16.38;54.18
66576;SHT31;53428;47.686;16.584;2023-03-21T15:28:32;16.31;54.92
66576;SHT31;53428;47.686;16.584;2023-03-21T15:33:36;16.26;54.81
66576;SHT31;53428;47.686;16.584;2023-03-21T15:38:38;16.06;55.47
66576;SHT31;53428;47.686;16.584;2023-03-21T15:43:38;15.99;55.88
66576;SHT31;53428;47.686;16.584;2023-03-21T15:48:38;15.78;57.10
66576;SHT31;53428;47.686;16.584;2023-03-21T15:53:41;15.78;57.49
66576;SHT31;53428;47.686;16.584;2023-03-21T15:58:42;15.65;57.73
66576;SHT31;53428;47.686;16.584;2023-03-21T16:03:45;15.45;58.52
66576;SHT31;53428;47.686;16.584;2023-03-21T16:08:48;15.34;58.90
66576;SHT31;53428;47.686;16.584;2023-03-21T16:13:49;15.27;58.98
66576;SHT31;53428;47.686;16.584;2023-03-21T16:18:49;15.20;59.20
66576;SHT31;53428;47.686;16.584;2023-03-21T16:23:49;15.16;59.58
66576;SHT31;53428;47.686;16.584;2023-03-21T16:28:49;15.11;59.80
66576;SHT31;53428;47.686;16.584;2023-03-21T16:33:52;15.08;59.50
66576;SHT31;53428;47.686;16.584;2023-03-21T16:38:52;14.99;59.99
66576;SHT31;53428;47.686;16.584;2023-03-21T16:43:52;14.94;60.22
66576;SHT31;53428;47.686;16.584;2023-03-21T16:48:54;14.87;60.55
66576;SHT31;53428;47.686;16.584;2023-03-21T16:53:54;14.82;60.70
66576;SHT31;53428;47.686;16.584;2023-03-21T16:58:55;14.68;60.76
66576;SHT31;53428;47.686;16.584;2023-03-21T17:03:55;14.62;61.08
66576;SHT31;53428;47.686;16.584;2023-03-21T17:08:58;14.56;61.52
66576;SHT31;53428;47.686;16.584;2023-03-21T17:13:58;14.49;61.71
66576;SHT31;53428;47.686;16.584;2023-03-21T17:18:57;14.46;61.98
66576;SHT31;53428;47.686;16.584;2023-03-21T17:23:59;14.39;61.94
66576;SHT31;53428;47.686;16.584;2023-03-21T17:28:59;14.31;62.16
66576;SHT31;53428;47.686;16.584;2023-03-21T17:33:59;14.29;62.44
66576;SHT31;53428;47.686;16.584;2023-03-21T17:38:59;14.22;62.43
66576;SHT31;53428;47.686;16.584;2023-03-21T17:44:00;14.18;62.70
66576;SHT31;53428;47.686;16.584;2023-03-21T17:49:04;14.22;62.73
66576;SHT31;53428;47.686;16.584;2023-03-21T17:54:04;14.28;62.86
66576;SHT31;53428;47.686;16.584;2023-03-21T17:59:07;14.22;63.10
66576;SHT31;53428;47.686;16.584;2023-03-21T18:04:09;14.17;63.22
66576;SHT31;53428;47.686;16.584;2023-03-21T18:09:09;14.07;63.23
66576;SHT31;53428;47.686;16.584;2023-03-21T18:14:12;14.11;63.44
66576;SHT31;53428;47.686;16.584;2023-03-21T18:19:12;14.08;63.30
66576;SHT31;53428;47.686;16.584;2023-03-21T18:24:13;13.98;63.42
66576;SHT31;53428;47.686;16.584;2023-03-21T18:29:13;13.96;63.70
66576;SHT31;53428;47.686;16.584;2023-03-21T18:34:16;13.97;63.58
66576;SHT31;53428;47.686;16.584;2023-03-21T18:39:16;13.94;63.73
66576;SHT31;53428;47.686;16.584;2023-03-21T18:44:16;13.97;63.72
66576;SHT31;53428;47.686;16.584;2023-03-21T18:49:16;13.86;63.92
66576;SHT31;53428;47.686;16.584;2023-03-21T18:54:15;13.80;64.19
66576;SHT31;53428;47.686;16.584;2023-03-21T18:59:17;13.74;64.41
66576;SHT31;53428;47.686;16.584;2023-03-21T19:04:18;13.66;64.69
66576;SHT31;53428;47.686;16.584;2023-03-21T19:09:18;13.60;64.95
66576;SHT31;53428;47.686;16.584;2023-03-21T19:14:18;13.56;65.43
66576;SHT31;53428;47.686;16.584;2023-03-21T19:19:18;13.50;65.81
66576;SHT31;53428;47.686;16.584;2023-03-21T19:24:20;13.45;65.69
66576;SHT31;53428;47.686;16.584;2023-03-21T19:29:20;13.48;65.70
66576;SHT31;53428;47.686;16.584;2023-03-21T19:34:20;13.40;65.87
66576;SHT31;53428;47.686;16.584;2023-03-21T19:39:20;13.28;66.20
66576;SHT31;53428;47.686;16.584;2023-03-21T19:44:20;12.98;67.35
66576;SHT31;53428;47.686;16.584;2023-03-21T19:49:21;12.83;68.32
66576;SHT31;53428;47.686;16.584;2023-03-21T19:54:21;12.70;68.85
66576;SHT31;53428;47.686;16.584;2023-03-21T19:59:22;12.46;69.60
66576;SHT31;53428;47.686;16.584;2023-03-21T20:04:22;12.36;70.20
66576;SHT31;53428;47.686;16.584;2023-03-21T20:09:23;12.22;70.37
66576;SHT31;53428;47.686;16.584;2023-03-21T20:14:25;12.18;70.87
66576;SHT31;53428;47.686;16.584;2023-03-21T20:19:24;12.06;71.60
66576;SHT31;53428;47.686;16.584;2023-03-21T20:24:27;11.87;72.00
66576;SHT31;53428;47.686;16.584;2023-03-21T20:29:27;11.63;72.57
66576;SHT31;53428;47.686;16.584;2023-03-21T20:34:27;11.48;72.86
66576;SHT31;53428;47.686;16.584;2023-03-21T20:39:27;11.36;73.55
66576;SHT31;53428;47.686;16.584;2023-03-21T20:44:27;11.44;73.46
66576;SHT31;53428;47.686;16.584;2023-03-21T20:49:29;11.29;74.37
66576;SHT31;53428;47.686;16.584;2023-03-21T20:54:28;11.08;74.73
66576;SHT31;53428;47.686;16.584;2023-03-21T20:59:30;10.82;74.99
66576;SHT31;53428;47.686;16.584;2023-03-21T21:04:29;10.88;75.49
66576;SHT31;53428;47.686;16.584;2023-03-21T21:09:31;10.68;76.25
66576;SHT31;53428;47.686;16.584;2023-03-21T21:14:30;10.27;77.21
66576;SHT31;53428;47.686;16.584;2023-03-21T21:19:30;10.27;77.42
66576;SHT31;53428;47.686;16.584;2023-03-21T21:24:30;10.25;76.87
66576;SHT31;53428;47.686;16.584;2023-03-21T21:29:30;10.06;77.91
66576;SHT31;53428;47.686;16.584;2023-03-21T21:34:30;9.95;77.96
66576;SHT31;53428;47.686;16.584;2023-03-21T21:39:31;9.97;78.23
66576;SHT31;53428;47.686;16.584;2023-03-21T21:44:35;9.69;78.65
66576;SHT31;53428;47.686;16.584;2023-03-21T21:49:35;9.32;79.99
66576;SHT31;53428;47.686;16.584;2023-03-21T21:54:35;9.24;80.63
66576;SHT31;53428;47.686;16.584;2023-03-21T21:59:34;9.18;80.61
66576;SHT31;53428;47.686;16.584;2023-03-21T22:04:33;8.96;81.19
66576;SHT31;53428;47.686;16.584;2023-03-21T22:09:32;8.96;81.12
66576;SHT31;53428;47.686;16.584;2023-03-21T22:14:32;8.77;81.55
66576;SHT31;53428;47.686;16.584;2023-03-21T22:19:31;8.58;81.73
66576;SHT31;53428;47.686;16.584;2023-03-21T22:24:31;8.58;81.75
66576;SHT31;53428;47.686;16.584;2023-03-21T22:29:30;8.34;82.12
66576;SHT31;53428;47.686;16.584;2023-03-21T22:34:30;8.30;81.89
66576;SHT31;53428;47.686;16.584;2023-03-21T22:39:29;8.35;82.04
66576;SHT31;53428;47.686;16.584;2023-03-21T22:44:32;8.48;81.48
66576;SHT31;53428;47.686;16.584;2023-03-21T22:49:35;8.59;81.12
66576;SHT31;53428;47.686;16.584;2023-03-21T22:54:34;8.62;80.76
66576;SHT31;53428;47.686;16.584;2023-03-21T22:59:33;8.42;81.05
66576;SHT31;53428;47.686;16.584;2023-03-21T23:04:33;8.52;80.85
66576;SHT31;53428;47.686;16.584;2023-03-21T23:09:33;8.56;80.52
66576;SHT31;53428;47.686;16.584;2023-03-21T23:14:32;8.79;79.66
66576;SHT31;53428;47.686;16.584;2023-03-21T23:19:32;8.87;79.32
66576;SHT31;53428;47.686;16.584;2023-03-21T23:24:31;8.89;79.06
66576;SHT31;53428;47.686;16.584;2023-03-21T23:29:31;8.80;79.31
66576;SHT31;53428;47.686;16.584;2023-03-21T23:34:30;8.66;79.50
66576;SHT31;53428;47.686;16.584;2023-03-21T23:39:30;8.59;79.68
66576;SHT31;53428;47.686;16.584;2023-03-21T23:44:32;8.49;79.74
66576;SHT31;53428;47.686;16.584;2023-03-21T23:49:31;8.41;79.89
66576;SHT31;53428;47.686;16.584;2023-03-21T23:54:35;8.32;80.04
66576;SHT31;53428;47.686;16.584;2023-03-21T23:59:35;8.22;80.20
